Time;durP1;ratioP1;P1;durP2;ratioP2;P2;SDS_P1;SDS_P2;PMS_P1;PMS_P2;Temp;Humidity;BMP_temperature;BMP_pressure;BME280_temperature;BME280_humidity;BME280_pressure;Samples;Min_cycle;Max_cycle;Signal;HPM_P1;HPM_P2
2022/03/12 00:02:15;;;;;;;27.80;8.43;;;-4.50;53.60;;;-6.87;48.02;101795.03;10454946;27;96707;-75
2022/03/12 00:07:18;;;;;;;24.23;6.80;;;-4.60;54.10;;;-6.84;48.13;101802.72;10447159;27;96729;-76
2022/03/12 00:12:21;;;;;;;26.13;6.47;;;-4.50;53.10;;;-6.84;48.29;101814.78;10448702;27;98345;-75
2022/03/12 00:17:25;;;;;;;16.57;4.77;;;-4.50;53.90;;;-6.85;48.65;101797.56;10414281;27;96640;-75
2022/03/12 00:22:28;;;;;;;9.50;3.30;;;-4.50;54.10;;;-6.82;47.97;101802.72;10442082;27;97006;-75
2022/03/12 00:27:32;;;;;;;14.33;4.30;;;-4.50;52.70;;;-6.79;48.16;101798.34;10463348;27;96453;-75
2022/03/12 00:32:38;;;;;;;41.57;9.00;;;-4.50;52.60;;;-6.76;47.57;101802.66;10466983;27;96761;-76
2022/03/12 00:37:41;;;;;;;85.80;19.77;;;-4.50;53.20;;;-6.75;47.84;101804.34;10467668;27;96435;-75
2022/03/12 00:42:44;;;;;;;105.53;22.97;;;-4.40;52.80;;;-6.77;47.93;101796.63;10433944;27;96638;-76
2022/03/12 00:47:49;;;;;;;121.30;26.13;;;-4.50;53.30;;;-6.77;48.65;101806.13;10433682;27;96615;-75
2022/03/12 00:52:53;;;;;;;117.63;28.40;;;-4.50;53.80;;;-6.75;48.25;101797.47;10444284;27;96578;-75
2022/03/12 00:57:57;;;;;;;98.67;25.37;;;-4.40;54.40;;;-6.75;48.33;101799.19;10410775;27;96510;-75
2022/03/12 01:03:01;;;;;;;100.47;24.40;;;-4.50;53.90;;;-6.77;48.66;101799.22;10451665;27;96528;-77
2022/03/12 01:08:05;;;;;;;111.43;25.50;;;-4.50;54.00;;;-6.80;48.61;101788.03;10425740;27;96432;-77
2022/03/12 01:13:08;;;;;;;136.47;30.07;;;-4.50;53.90;;;-6.81;49.11;101794.94;10437802;27;96959;-78
2022/03/12 01:18:19;;;;;;;106.30;24.57;;;-4.50;54.70;;;-6.85;49.63;101802.75;10394264;27;96545;-76
2022/03/12 01:23:25;;;;;;;104.07;24.73;;;-4.50;55.10;;;-6.89;49.50;101791.63;10391921;27;96602;-76
2022/03/12 01:28:27;;;;;;;59.63;14.80;;;-4.60;55.20;;;-6.91;49.28;101793.34;10400433;27;96350;-75
2022/03/12 01:33:31;;;;;;;49.60;13.93;;;-4.60;54.50;;;-6.97;49.65;101806.34;10444833;27;96582;-75
2022/03/12 01:38:47;;;;;;;40.57;12.07;;;-4.60;55.70;;;-6.97;49.67;101793.41;10441207;27;96521;-75
2022/03/12 01:43:52;;;;;;;35.13;8.80;;;-4.60;54.90;;;-6.97;50.18;101803.75;10399954;27;96788;-75
2022/03/12 01:48:59;;;;;;;34.83;9.03;;;-4.60;54.80;;;-6.97;50.37;101814.09;10485320;27;97287;-75
2022/03/12 01:54:04;;;;;;;49.33;11.63;;;-4.60;56.10;;;-6.99;50.52;101808.09;10454285;27;96890;-75
2022/03/12 01:59:07;;;;;;;65.03;15.40;;;-4.70;56.00;;;-7.01;50.78;101799.50;10424621;27;96734;-75
2022/03/12 02:04:11;;;;;;;95.63;20.43;;;-4.70;55.50;;;-7.03;51.03;101807.25;10487702;27;96535;-77
2022/03/12 02:09:15;;;;;;;84.13;21.23;;;-4.70;56.50;;;-7.06;51.09;101804.72;10458661;27;96881;-77
2022/03/12 02:14:23;;;;;;;78.53;18.27;;;-4.70;56.60;;;-7.07;50.98;101807.34;10452406;27;96376;-77
2022/03/12 02:19:29;;;;;;;85.33;18.53;;;-4.70;55.90;;;-7.04;51.43;101800.38;10402386;28;96532;-77
2022/03/12 02:24:35;;;;;;;92.33;21.43;;;-4.70;56.50;;;-6.96;51.13;101807.19;10398982;27;96504;-77
2022/03/12 02:29:41;;;;;;;86.93;19.80;;;-4.70;56.30;;;-6.91;50.74;101802.81;10438964;27;96666;-77
2022/03/12 02:34:51;;;;;;;57.03;12.60;;;-4.60;56.70;;;-6.82;51.05;101797.56;10423526;27;96687;-76
2022/03/12 02:39:56;;;;;;;45.40;10.13;;;-4.60;56.50;;;-6.79;50.42;101808.69;10423537;27;96713;-76
2022/03/12 02:45:00;;;;;;;29.93;8.20;;;-4.50;54.90;;;-6.75;50.45;101810.38;10422031;27;98159;-76
2022/03/12 02:50:07;;;;;;;29.87;7.60;;;-4.50;55.20;;;-6.74;50.80;101814.66;10400577;27;98587;-76
2022/03/12 02:55:13;;;;;;;31.50;7.90;;;-4.50;56.30;;;-6.75;50.39;101819.88;10382643;27;97014;-76
2022/03/12 03:00:18;;;;;;;35.87;9.27;;;-4.50;56.10;;;-6.79;51.12;101816.44;10432959;27;96880;-76
2022/03/12 03:10:44;;;;;;;27.80;8.57;;;-4.50;57.10;;;-6.80;50.75;101832.00;10444692;27;96571;-76
2022/03/12 03:15:55;;;;;;;28.05;7.28;;;-4.50;57.30;;;-6.87;50.88;101830.34;10421690;27;96562;-76
2022/03/12 03:21:01;;;;;;;23.77;7.53;;;-4.60;56.20;;;-6.93;51.42;101830.44;10432734;27;96621;-76
2022/03/12 03:26:05;;;;;;;18.73;5.67;;;-4.60;58.00;;;-6.97;51.25;101821.84;10454718;27;96549;-76
2022/03/12 03:31:08;;;;;;;17.27;5.60;;;-4.60;56.80;;;-6.97;52.04;101819.25;10440737;27;96475;-76
2022/03/12 03:36:11;;;;;;;19.20;5.57;;;-4.60;56.80;;;-6.93;51.58;101820.09;10414042;27;98623;-77
2022/03/12 03:41:15;;;;;;;24.83;5.90;;;-4.60;57.80;;;-6.93;51.24;101828.69;10499304;27;96447;-76
2022/03/12 03:46:21;;;;;;;26.67;7.10;;;-4.60;56.60;;;-6.97;51.90;101837.34;10425158;27;96532;-76
2022/03/12 03:51:25;;;;;;;29.10;6.23;;;-4.60;57.00;;;-7.01;52.14;101828.78;10404158;28;96500;-76
2022/03/12 03:56:28;;;;;;;25.87;6.93;;;-4.70;56.60;;;-7.07;52.13;101833.16;10454064;27;96975;-76
2022/03/12 04:01:31;;;;;;;22.30;6.30;;;-4.70;57.40;;;-7.11;52.65;101839.22;10420199;27;96490;-76
2022/03/12 04:06:38;;;;;;;12.80;3.80;;;-4.80;58.00;;;-7.12;52.54;101827.19;10421062;27;96401;-76
2022/03/12 04:11:42;;;;;;;16.50;3.40;;;-4.80;57.20;;;-7.06;52.49;101832.28;10430942;27;96960;-76
2022/03/12 04:16:45;;;;;;;16.67;3.97;;;-4.80;57.40;;;-6.97;51.61;101833.91;10451941;27;98471;-76
2022/03/12 04:21:48;;;;;;;8.17;3.47;;;-4.70;57.00;;;-6.94;52.62;101824.41;10450299;27;97010;-76
2022/03/12 04:26:52;;;;;;;15.70;4.17;;;-4.70;58.10;;;-6.93;52.45;101831.28;10414966;27;96712;-76
2022/03/12 04:31:56;;;;;;;11.67;3.57;;;-4.70;58.00;;;-6.93;52.25;101820.09;10412633;27;96573;-77
2022/03/12 04:36:59;;;;;;;22.67;4.67;;;-4.70;57.50;;;-6.93;52.48;101827.84;10421234;28;96625;-77
2022/03/12 04:42:03;;;;;;;17.73;5.77;;;-4.70;56.30;;;-6.95;53.22;101830.44;10422722;27;96583;-77
2022/03/12 04:47:10;;;;;;;18.97;6.77;;;-4.70;58.80;;;-6.99;53.66;101841.69;10426219;27;96544;-78
2022/03/12 04:52:14;;;;;;;25.90;7.33;;;-4.80;59.90;;;-7.01;54.41;101833.09;10439066;27;96585;-77
2022/03/12 04:57:19;;;;;;;23.70;6.57;;;-4.80;60.80;;;-7.02;54.08;101836.53;10430163;27;96494;-78
2022/03/12 05:02:22;;;;;;;31.10;9.80;;;-4.80;59.90;;;-7.01;54.36;101836.53;10408951;27;96522;-78
2022/03/12 05:07:26;;;;;;;22.53;8.27;;;-4.80;59.90;;;-7.05;54.36;101836.59;10419805;27;97565;-78
2022/03/12 05:12:30;;;;;;;23.80;7.63;;;-4.80;60.00;;;-7.11;54.82;101841.81;10453445;27;96627;-79
2022/03/12 05:17:38;;;;;;;10.33;4.70;;;-4.80;60.20;;;-7.13;54.05;101843.56;10442042;27;96685;-78
2022/03/12 05:22:41;;;;;;;18.53;6.27;;;-4.90;59.00;;;-7.07;53.74;101846.09;10426823;27;96635;-79
2022/03/12 05:27:52;;;;;;;24.27;5.60;;;-4.80;58.90;;;-7.01;53.49;101856.38;10364270;28;96724;-78
2022/03/12 05:32:55;;;;;;;17.77;5.20;;;-4.70;58.40;;;-6.91;54.13;101841.59;10363725;27;96621;-78
2022/03/12 05:37:58;;;;;;;19.90;6.00;;;-4.70;58.70;;;-6.85;54.39;101851.88;10339751;28;96585;-78
2022/03/12 05:43:01;;;;;;;19.87;5.63;;;-4.60;60.00;;;-6.82;55.27;101850.09;10359487;28;96638;-78
2022/03/12 05:48:08;;;;;;;12.63;4.60;;;-4.60;58.10;;;-6.75;55.96;101856.91;10381256;28;96704;-77
2022/03/12 05:53:13;;;;;;;14.27;4.40;;;-4.60;60.20;;;-6.70;54.96;101863.78;10394594;28;97025;-78
2022/03/12 05:58:20;;;;;;;15.67;5.17;;;-4.50;59.40;;;-6.65;56.10;101862.84;10400192;28;97207;-79
2022/03/12 06:03:24;;;;;;;16.80;5.63;;;-4.50;59.80;;;-6.57;56.30;101862.75;10390200;28;96767;-80
2022/03/12 06:08:28;;;;;;;26.13;7.60;;;-4.40;60.30;;;-6.49;56.29;101869.53;10385397;28;96630;-77
2022/03/12 06:13:32;;;;;;;17.13;5.97;;;-4.30;60.40;;;-6.37;56.09;101865.94;10390338;27;96582;-77
2022/03/12 06:18:38;;;;;;;13.87;5.87;;;-4.20;59.50;;;-6.23;56.14;101869.22;10415963;27;96668;-77
2022/03/12 06:23:41;;;;;;;15.93;7.87;;;-4.10;59.50;;;-6.08;56.03;101860.38;10400362;27;96580;-77
2022/03/12 06:28:45;;;;;;;27.43;11.57;;;-4.00;59.80;;;-5.94;55.85;101862.75;10437009;27;96520;-77
2022/03/12 06:33:49;;;;;;;63.57;22.77;;;-3.90;60.50;;;-5.71;56.13;101862.38;10459121;27;96487;-77
2022/03/12 06:38:52;;;;;;;31.03;13.90;;;-3.70;59.30;;;-5.40;55.85;101871.38;10426596;27;96556;-78
2022/03/12 06:43:57;;;;;;;26.53;12.63;;;-3.50;59.90;;;-5.06;55.78;101875.97;10455125;27;97405;-77
2022/03/12 06:49:00;;;;;;;27.30;10.57;;;-3.20;60.00;;;-4.73;54.39;101877.09;10384044;28;96631;-77
2022/03/12 06:54:04;;;;;;;24.50;8.67;;;-2.90;58.90;;;-4.42;53.57;101879.06;10435226;27;96633;-77
2022/03/12 06:59:07;;;;;;;12.10;5.70;;;-2.60;58.50;;;-4.09;51.07;101880.94;10440107;27;96460;-77
2022/03/12 07:04:11;;;;;;;12.30;5.20;;;-2.30;56.50;;;-3.73;48.95;101886.19;10439184;27;97062;-77
2022/03/12 07:09:15;;;;;;;11.43;3.80;;;-1.90;54.90;;;-3.35;47.70;101881.84;10448619;27;96599;-76
2022/03/12 07:14:17;;;;;;;12.40;4.97;;;-1.60;54.20;;;-3.04;46.15;101880.16;10438513;27;98622;-77
2022/03/12 07:19:21;;;;;;;8.70;3.97;;;-1.30;53.60;;;-2.74;44.50;101882.84;10387501;27;97867;-76
2022/03/12 07:24:24;;;;;;;11.30;3.80;;;-0.90;52.60;;;-2.45;44.63;101882.88;10396738;28;96718;-75
2022/03/12 07:29:29;;;;;;;11.23;3.87;;;-0.70;52.80;;;-2.14;43.78;101879.38;10397030;27;96659;-76
2022/03/12 07:34:32;;;;;;;10.20;3.97;;;-0.40;51.80;;;-1.90;42.59;101880.38;10413135;28;96674;-76
2022/03/12 07:39:36;;;;;;;10.50;4.40;;;-0.10;51.50;;;-1.65;42.80;101875.25;10435267;27;97147;-75
2022/03/12 07:44:39;;;;;;;9.27;4.50;;;0.10;51.40;;;-1.40;43.05;101865.72;10454294;27;97925;-75
2022/03/12 07:49:42;;;;;;;13.63;5.13;;;0.30;51.40;;;-1.15;42.50;101857.91;10453079;27;96540;-75
2022/03/12 07:54:50;;;;;;;7.57;3.40;;;0.60;50.60;;;-0.88;41.32;101852.66;10436167;27;97272;-75
2022/03/12 07:59:54;;;;;;;9.63;4.13;;;0.90;50.00;;;-0.64;41.25;101848.31;10431706;27;96572;-75
2022/03/12 08:04:57;;;;;;;9.90;4.43;;;1.10;49.90;;;0.10;41.07;101855.06;10397691;28;96728;-76
2022/03/12 08:10:00;;;;;;;7.37;3.57;;;1.50;50.00;;;1.67;38.59;101844.84;10429942;27;97108;-75
2022/03/12 08:15:05;;;;;;;14.90;5.00;;;2.00;49.80;;;2.22;35.34;101842.28;10426447;27;96449;-76
2022/03/12 08:20:08;;;;;;;10.60;4.37;;;2.50;48.90;;;2.38;35.12;101843.22;10425728;27;96524;-76
2022/03/12 08:25:13;;;;;;;8.07;4.23;;;3.00;48.00;;;3.01;35.03;101826.94;10416707;27;97040;-76
2022/03/12 08:30:19;;;;;;;9.50;5.03;;;3.50;47.60;;;3.79;33.73;101835.06;10433445;27;96614;-76
2022/03/12 08:35:23;;;;;;;8.70;3.40;;;4.10;46.00;;;4.33;31.41;101817.13;10425113;27;96657;-75
2022/03/12 08:40:25;;;;;;;10.77;3.70;;;4.60;46.00;;;4.89;30.17;101826.94;10439922;27;97015;-75
2022/03/12 08:45:28;;;;;;;5.47;2.90;;;5.00;43.80;;;5.39;30.43;101817.75;10436609;27;97011;-75
2022/03/12 08:50:32;;;;;;;6.13;3.20;;;5.40;43.60;;;5.58;29.53;101813.03;10412131;27;96554;-74
2022/03/12 08:55:35;;;;;;;4.90;2.63;;;5.90;42.70;;;5.40;29.21;101815.94;10449121;27;97000;-76
2022/03/12 09:00:38;;;;;;;6.00;2.70;;;6.20;41.90;;;5.41;28.36;101813.25;10440618;27;96528;-75
2022/03/12 09:05:42;;;;;;;5.67;2.50;;;6.50;39.50;;;5.70;28.34;101813.19;10401642;28;96411;-76
2022/03/12 09:10:46;;;;;;;5.27;2.73;;;6.80;40.00;;;6.09;27.75;101808.03;10437723;27;96594;-76
2022/03/12 09:15:51;;;;;;;8.00;3.17;;;7.00;39.40;;;6.56;27.16;101798.78;10435321;27;96479;-76
2022/03/12 09:20:54;;;;;;;7.10;2.87;;;7.30;39.40;;;6.94;25.69;101800.59;10422018;27;96667;-75
2022/03/12 09:25:57;;;;;;;5.80;2.63;;;7.60;37.40;;;7.08;25.15;101789.94;10437101;27;98239;-75
2022/03/12 09:31:00;;;;;;;5.40;3.13;;;7.70;36.70;;;7.61;24.45;101779.16;10434802;27;96476;-75
2022/03/12 09:36:04;;;;;;;8.07;3.00;;;8.10;36.50;;;7.61;24.10;101784.44;10434289;27;96487;-75
2022/03/12 09:41:07;;;;;;;6.00;2.87;;;8.20;35.80;;;7.54;23.74;101775.25;10452985;27;98615;-75
2022/03/12 09:46:10;;;;;;;6.47;2.90;;;8.30;35.80;;;7.35;22.97;101763.34;10438806;27;96486;-75
2022/03/12 09:51:14;;;;;;;11.17;3.57;;;8.20;35.00;;;6.76;22.61;101764.88;10442918;27;96553;-75
2022/03/12 09:56:17;;;;;;;6.17;3.53;;;8.00;33.80;;;6.47;23.06;101762.41;10421288;27;98079;-74
2022/03/12 10:01:20;;;;;;;5.57;3.20;;;7.80;34.30;;;6.39;22.81;101762.09;10434577;27;98203;-75
2022/03/12 10:06:23;;;;;;;6.63;3.50;;;7.90;34.00;;;6.85;23.39;101758.97;10416137;27;96716;-75
2022/03/12 10:11:28;;;;;;;5.03;3.00;;;8.10;34.20;;;7.33;22.93;101754.69;10422094;27;98022;-74
2022/03/12 10:16:30;;;;;;;9.03;3.40;;;8.50;33.90;;;7.12;22.33;101754.41;10426780;27;96717;-75
2022/03/12 10:21:36;;;;;;;7.83;3.80;;;8.60;33.30;;;7.40;22.05;101747.16;10429306;27;96616;-76
2022/03/12 10:26:40;;;;;;;9.00;3.90;;;8.80;33.60;;;7.91;21.74;101754.91;10384827;28;96569;-77
2022/03/12 10:31:43;;;;;;;6.83;3.93;;;9.00;32.80;;;8.52;20.83;101742.44;10370502;28;96569;-76
2022/03/12 10:36:49;;;;;;;6.53;4.07;;;9.50;32.90;;;9.17;20.79;101733.81;10397096;27;96562;-76
2022/03/12 10:42:04;;;;;;;7.07;3.57;;;10.10;32.90;;;9.95;19.76;101726.66;10395023;28;96882;-77
2022/03/12 10:47:24;;;;;;;5.77;3.30;;;10.80;31.90;;;10.47;19.13;101725.00;10372638;28;96551;-76
2022/03/12 10:52:29;;;;;;;6.17;3.80;;;11.40;31.80;;;10.92;18.61;101718.41;10378154;28;97100;-77
2022/03/12 10:57:32;;;;;;;7.35;4.28;;;11.80;31.40;;;11.40;18.39;101715.06;10392372;28;96698;-76
2022/03/12 11:02:35;;;;;;;5.35;3.45;;;12.30;30.00;;;11.79;18.13;101693.81;10386039;28;96746;-76
2022/03/12 11:07:38;;;;;;;6.68;3.60;;;12.60;30.40;;;12.30;17.34;101695.38;10355941;28;96928;-77
2022/03/12 11:12:42;;;;;;;6.90;3.75;;;13.10;29.70;;;12.41;16.67;101689.88;10378543;28;97015;-76
2022/03/12 11:17:48;;;;;;;7.00;3.50;;;13.40;29.70;;;12.49;17.03;101683.84;10395002;27;98129;-77
2022/03/12 11:23:23;;;;;;;5.05;3.42;;;13.50;29.20;;;12.93;17.35;101662.75;10435973;27;96732;-77
2022/03/12 11:28:29;;;;;;;5.72;3.50;;;13.90;29.10;;;13.05;16.39;101659.75;10446088;27;96615;-76
2022/03/12 11:33:32;;;;;;;6.28;3.10;;;14.20;28.70;;;13.17;16.33;101654.22;10433247;27;98174;-77
2022/03/12 11:38:36;;;;;;;9.65;3.40;;;14.30;28.80;;;13.22;16.10;101651.97;10404120;27;96707;-77
2022/03/12 11:43:41;;;;;;;6.00;3.45;;;14.50;28.00;;;13.26;16.21;101650.69;10412905;27;96514;-77
2022/03/12 11:48:44;;;;;;;7.10;3.45;;;14.50;28.20;;;13.29;16.42;101645.03;10398854;27;97002;-79
2022/03/12 11:53:48;;;;;;;6.35;3.50;;;14.60;28.20;;;13.48;15.44;101623.53;10440466;27;96608;-77
2022/03/12 11:58:51;;;;;;;15.80;7.85;;;14.70;27.60;;;13.56;15.38;101620.97;10437724;27;97188;-77
2022/03/12 12:03:53;;;;;;;8.90;4.93;;;15.00;28.00;;;13.46;15.72;101616.69;10420706;27;98134;-78
2022/03/12 12:08:57;;;;;;;5.57;3.70;;;14.80;27.60;;;13.35;15.33;101617.72;10411546;27;96539;-77
2022/03/12 12:14:00;;;;;;;6.47;3.63;;;14.80;27.20;;;13.13;15.40;101603.81;10402661;27;96679;-76
2022/03/12 12:19:03;;;;;;;5.55;3.28;;;14.70;27.50;;;13.42;15.90;101596.59;10438518;27;97262;-78
2022/03/12 12:24:32;;;;;;;6.32;3.75;;;14.80;27.40;;;13.03;15.44;101592.34;10436690;27;97592;-78
2022/03/12 12:29:54;;;;;;;7.57;4.38;;;14.60;27.20;;;13.00;15.93;101589.13;10417538;27;97795;-77
2022/03/12 12:35:02;;;;;;;5.55;3.70;;;14.50;27.20;;;12.11;15.81;101591.47;10436446;27;96527;-77
2022/03/12 12:40:20;;;;;;;5.13;3.10;;;13.80;26.90;;;10.93;16.49;101592.41;10431557;27;96652;-77
2022/03/12 12:45:26;;;;;;;8.60;3.80;;;12.80;26.80;;;9.77;16.97;101581.16;10432535;27;96845;-77
2022/03/12 12:50:30;;;;;;;13.40;6.97;;;11.70;27.20;;;8.93;18.08;101589.91;10419553;28;96830;-78
2022/03/12 12:55:34;;;;;;;14.73;8.40;;;10.90;27.50;;;8.17;18.92;101596.78;10412861;27;96459;-77
2022/03/12 13:00:40;;;;;;;6.20;3.83;;;10.20;28.20;;;7.86;19.60;101590.34;10406860;27;96660;-78
2022/03/12 13:05:58;;;;;;;6.40;3.50;;;9.80;28.40;;;7.61;19.69;101583.38;10445251;27;96502;-77
2022/03/12 13:11:26;;;;;;;16.87;9.63;;;9.60;28.60;;;7.46;19.83;101574.81;10437363;27;96447;-77
2022/03/12 13:16:57;;;;;;;11.77;5.37;;;9.50;28.90;;;7.35;20.34;101572.94;10427726;27;96595;-78
2022/03/12 13:22:11;;;;;;;32.13;14.57;;;9.40;29.10;;;7.21;19.79;101571.34;10376452;28;97253;-78
2022/03/12 13:27:23;;;;;;;9.83;5.33;;;9.30;28.90;;;7.27;20.37;101563.91;10380019;28;96593;-78
2022/03/12 13:32:26;;;;;;;7.70;4.57;;;9.30;29.10;;;7.30;20.39;101561.03;10396481;28;96527;-76
2022/03/12 13:37:29;;;;;;;7.67;3.37;;;9.30;29.20;;;7.37;19.96;101551.66;10388117;28;96505;-78
2022/03/12 13:42:48;;;;;;;7.93;3.80;;;9.40;29.10;;;7.47;20.13;101539.44;10397304;28;96596;-78
2022/03/12 13:47:54;;;;;;;9.50;5.97;;;9.60;29.10;;;7.64;20.04;101532.91;10386013;28;98255;-78
2022/03/12 13:53:04;;;;;;;5.60;3.13;;;9.80;29.00;;;7.63;19.92;101528.56;10372462;27;96497;-76
2022/03/12 13:58:07;;;;;;;7.43;3.93;;;10.00;28.90;;;7.72;20.28;101531.34;10393020;27;96969;-75
2022/03/12 14:03:12;;;;;;;7.43;3.40;;;10.10;28.90;;;7.82;20.40;101522.72;10371225;27;96560;-74
2022/03/12 14:08:21;;;;;;;6.67;3.90;;;10.00;28.90;;;7.76;19.87;101527.50;10387717;27;97894;-77
2022/03/12 14:13:24;;;;;;;6.03;3.87;;;10.00;28.60;;;7.72;19.90;101518.13;10380068;27;96542;-76
2022/03/12 14:18:28;;;;;;;6.13;2.93;;;10.00;28.70;;;7.79;19.94;101513.19;10370459;28;96550;-75
2022/03/12 14:23:32;;;;;;;9.13;3.80;;;10.20;28.80;;;8.02;19.75;101503.47;10415716;27;96539;-75
2022/03/12 14:28:36;;;;;;;5.77;3.07;;;10.50;28.80;;;8.04;19.79;101497.13;10443602;27;98346;-76
2022/03/12 14:33:41;;;;;;;6.87;3.70;;;10.50;28.30;;;8.14;19.79;101497.22;10421978;27;96729;-75
2022/03/12 14:38:44;;;;;;;6.37;3.07;;;10.70;28.60;;;8.16;19.62;101503.25;10399828;28;97211;-75
2022/03/12 14:43:53;;;;;;;9.30;4.00;;;10.70;28.50;;;8.10;19.63;101503.75;10435327;27;97895;-75
2022/03/12 14:48:59;;;;;;;7.57;3.53;;;10.60;28.40;;;7.96;19.65;101501.31;10424173;27;96654;-76
2022/03/12 14:54:11;;;;;;;8.27;4.13;;;10.30;28.40;;;7.78;19.81;101507.06;10458522;27;96353;-76
2022/03/12 14:59:15;;;;;;;7.67;2.97;;;10.00;28.60;;;7.51;19.86;101510.03;10426950;27;96508;-75
2022/03/12 15:04:28;;;;;;;6.40;3.53;;;9.70;28.60;;;7.27;20.00;101503.09;10422760;27;96494;-76
2022/03/12 15:09:31;;;;;;;8.13;3.43;;;9.40;28.80;;;7.08;20.30;101496.53;10432089;27;96616;-76
2022/03/12 15:14:35;;;;;;;7.77;4.03;;;9.20;28.90;;;6.88;20.47;101486.56;10439227;27;96558;-76
2022/03/12 15:19:39;;;;;;;6.73;3.27;;;8.90;29.10;;;6.67;20.48;101483.72;10418664;27;96562;-76
2022/03/12 15:24:42;;;;;;;6.33;3.27;;;8.70;29.10;;;6.48;20.80;101485.97;10437565;27;96808;-76
2022/03/12 15:29:59;;;;;;;7.53;4.07;;;8.40;29.30;;;6.31;21.36;101479.28;10421377;27;96563;-76
2022/03/12 15:35:06;;;;;;;25.87;13.33;;;8.20;29.70;;;6.22;21.69;101475.47;10455412;27;96615;-75
2022/03/12 15:40:15;;;;;;;13.60;6.20;;;8.00;29.90;;;6.04;22.07;101472.34;10443053;27;96486;-75
2022/03/12 15:45:22;;;;;;;12.17;5.63;;;7.80;29.80;;;5.81;21.96;101480.97;10450662;27;96474;-76
2022/03/12 15:50:26;;;;;;;9.60;4.80;;;7.60;30.00;;;5.53;22.29;101480.25;10440020;27;97572;-75
2022/03/12 15:55:47;;;;;;;9.10;4.28;;;7.40;30.40;;;5.22;22.53;101477.97;10433314;27;98085;-76
2022/03/12 16:00:56;;;;;;;27.37;9.03;;;7.10;30.30;;;4.91;22.83;101479.97;10410547;27;97108;-76
2022/03/12 16:05:59;;;;;;;14.27;4.93;;;6.80;30.80;;;4.61;24.08;101481.97;10415073;27;96812;-76
2022/03/12 16:11:02;;;;;;;15.03;6.10;;;6.60;31.70;;;4.29;24.16;101483.06;10386788;27;96543;-75
2022/03/12 16:16:08;;;;;;;18.97;6.90;;;6.30;31.50;;;3.94;25.09;101476.50;10420031;27;96757;-75
2022/03/12 16:21:12;;;;;;;26.20;8.97;;;6.00;32.60;;;3.60;25.01;101472.44;10459743;27;96535;-75
2022/03/12 16:26:15;;;;;;;15.90;5.90;;;5.60;32.30;;;3.25;25.95;101479.81;10443327;27;96508;-75
2022/03/12 16:31:18;;;;;;;35.30;12.07;;;5.30;32.90;;;2.91;26.44;101484.34;10430483;27;96456;-75
2022/03/12 16:36:21;;;;;;;28.20;11.20;;;5.00;33.20;;;2.55;27.19;101490.75;10425756;27;96745;-75
2022/03/12 16:41:25;;;;;;;26.87;11.27;;;4.70;34.00;;;2.21;27.69;101489.09;10415140;27;96552;-76
2022/03/12 16:46:29;;;;;;;23.67;10.30;;;4.30;34.70;;;1.91;28.04;101493.34;10419722;27;96442;-76
2022/03/12 16:51:32;;;;;;;35.90;14.73;;;4.00;34.70;;;1.60;28.94;101498.41;10418226;27;96530;-76
2022/03/12 16:56:35;;;;;;;38.43;15.90;;;3.70;35.30;;;1.32;29.53;101485.91;10419864;27;96698;-76
2022/03/12 17:01:39;;;;;;;93.07;27.80;;;3.50;36.00;;;1.09;29.74;101486.19;10401207;28;96377;-76
2022/03/12 17:06:47;;;;;;;74.50;24.37;;;3.20;35.00;;;0.88;30.13;101495.06;10404590;27;96605;-76
2022/03/12 17:11:50;;;;;;;80.57;25.30;;;3.00;35.10;;;0.69;30.42;101501.19;10436884;27;98812;-77
2022/03/12 17:16:55;;;;;;;69.77;23.07;;;2.80;35.30;;;0.52;30.76;101496.75;10425525;27;96588;-81
2022/03/12 17:22:00;;;;;;;48.30;17.90;;;2.60;35.30;;;0.36;31.03;101490.56;10419785;27;96742;-77
2022/03/12 17:27:04;;;;;;;30.20;12.67;;;2.40;35.50;;;0.25;31.36;101487.59;10421003;27;96672;-76
2022/03/12 17:32:08;;;;;;;21.80;9.90;;;2.30;35.90;;;0.21;31.43;101488.63;10419050;27;96595;-76
2022/03/12 17:37:11;;;;;;;17.50;8.27;;;2.20;36.10;;;0.09;31.61;101483.97;10425425;27;96536;-76
2022/03/12 17:42:13;;;;;;;14.43;7.30;;;2.10;36.70;;;0.01;32.04;101486.94;10406788;27;96707;-76
2022/03/12 17:47:17;;;;;;;31.60;10.37;;;2.00;37.00;;;-0.10;31.87;101491.78;10414262;27;96591;-76
2022/03/12 17:52:20;;;;;;;35.83;12.47;;;1.90;37.40;;;-0.15;32.45;101483.31;10432662;27;96525;-77
2022/03/12 17:57:23;;;;;;;21.70;8.33;;;1.80;36.90;;;-0.20;32.58;101482.66;10434083;27;96484;-76
2022/03/12 18:02:27;;;;;;;29.20;10.60;;;1.70;37.60;;;-0.30;32.60;101483.06;10429423;27;98060;-77
2022/03/12 18:07:31;;;;;;;19.83;8.57;;;1.70;38.20;;;-0.41;33.27;101487.91;10429919;27;96739;-76
2022/03/12 18:12:35;;;;;;;11.53;6.30;;;1.60;40.20;;;-0.55;33.28;101487.63;10440869;27;98152;-76
2022/03/12 18:17:41;;;;;;;14.70;6.30;;;1.50;39.00;;;-0.69;33.79;101482.16;10429942;27;96595;-77
2022/03/12 18:22:49;;;;;;;10.30;5.03;;;1.30;39.40;;;-0.82;34.40;101487.03;10424899;27;96523;-76
2022/03/12 18:27:54;;;;;;;16.53;6.83;;;1.20;40.50;;;-1.01;34.83;101486.97;10450255;27;96654;-77
2022/03/12 18:32:58;;;;;;;14.80;7.17;;;1.10;40.80;;;-1.15;35.43;101489.25;10433703;27;96685;-76
2022/03/12 18:38:01;;;;;;;12.43;5.90;;;0.90;41.50;;;-1.29;35.63;101476.78;10443935;27;96572;-77
2022/03/12 18:43:05;;;;;;;12.70;6.17;;;0.80;40.60;;;-1.38;35.83;101482.34;10400783;28;96698;-76
2022/03/12 18:48:09;;;;;;;13.67;4.53;;;0.70;41.40;;;-1.48;36.15;101486.22;10408641;27;96787;-76
2022/03/12 18:53:12;;;;;;;11.87;5.13;;;0.60;41.40;;;-1.57;36.02;101478.75;10419026;27;98278;-76
2022/03/12 18:58:17;;;;;;;16.47;6.60;;;0.50;41.70;;;-1.69;36.17;101467.03;10438032;27;97061;-78
2022/03/12 19:03:20;;;;;;;12.70;5.37;;;0.50;41.60;;;-1.79;36.47;101470.94;10448258;27;96997;-77
2022/03/12 19:08:24;;;;;;;8.90;4.07;;;0.40;42.10;;;-1.84;36.49;101465.88;10415928;27;98581;-77
2022/03/12 19:13:27;;;;;;;10.20;4.90;;;0.30;42.50;;;-1.87;36.70;101460.78;10420175;27;96628;-77
2022/03/12 19:18:30;;;;;;;10.07;4.50;;;0.20;41.00;;;-1.99;36.66;101449.06;10444838;27;97815;-76
2022/03/12 19:23:34;;;;;;;10.80;4.83;;;0.20;41.30;;;-2.13;37.24;101453.94;10411345;27;96840;-76
2022/03/12 19:28:36;;;;;;;10.57;4.73;;;0.10;42.10;;;-2.29;37.66;101456.22;10418610;27;98176;-77
2022/03/12 19:33:40;;;;;;;12.23;5.93;;;-0.10;42.00;;;-2.45;38.46;101455.94;10424686;27;96924;-78
2022/03/12 19:38:43;;;;;;;10.50;4.67;;;-0.20;43.00;;;-2.57;39.27;101463.34;10416244;27;97086;-79
2022/03/12 19:43:47;;;;;;;13.47;4.80;;;-0.30;44.10;;;-2.70;39.90;101461.16;10428895;27;96546;-77
2022/03/12 19:48:51;;;;;;;21.03;7.17;;;-0.40;44.20;;;-2.72;40.48;101462.94;10421367;27;97188;-77
2022/03/12 19:53:55;;;;;;;22.50;6.17;;;-0.50;42.90;;;-2.73;40.87;101463.00;10422916;27;98319;-77
2022/03/12 19:58:58;;;;;;;22.00;7.40;;;-0.60;43.10;;;-2.80;41.04;101466.72;10399446;27;98534;-77
2022/03/12 20:04:01;;;;;;;38.37;16.17;;;-0.60;43.40;;;-2.85;41.02;101472.06;10428669;27;98454;-77
2022/03/12 20:09:04;;;;;;;39.03;16.80;;;-0.70;44.50;;;-2.88;41.43;101471.31;10431269;27;96594;-77
2022/03/12 20:14:07;;;;;;;57.07;20.40;;;-0.80;44.90;;;-2.93;41.96;101460.25;10405447;27;96592;-77
2022/03/12 20:19:10;;;;;;;38.30;16.77;;;-0.80;46.20;;;-3.06;42.04;101458.03;10430156;27;96622;-77
2022/03/12 20:24:13;;;;;;;48.60;19.93;;;-0.90;45.70;;;-3.15;42.97;101473.94;10392180;27;97232;-77
2022/03/12 20:29:16;;;;;;;51.07;22.37;;;-1.00;46.20;;;-3.19;43.15;101467.13;10432759;27;96560;-77
2022/03/12 20:34:19;;;;;;;46.33;19.47;;;-1.00;45.70;;;-3.21;43.59;101468.94;10442232;27;96765;-76
2022/03/12 20:39:23;;;;;;;49.30;20.53;;;-1.10;45.90;;;-3.30;44.31;101466.59;10431016;27;96517;-77
2022/03/12 20:44:27;;;;;;;45.17;17.30;;;-1.10;47.10;;;-3.42;44.16;101465.25;10447734;27;96954;-77
2022/03/12 20:49:31;;;;;;;44.80;15.73;;;-1.20;47.70;;;-3.55;43.69;101462.19;10427673;27;98006;-78
2022/03/12 20:54:34;;;;;;;28.30;12.53;;;-1.30;47.40;;;-3.60;44.49;101464.09;10447016;27;96932;-78
2022/03/12 20:59:37;;;;;;;29.80;10.97;;;-1.40;49.40;;;-3.61;45.32;101457.16;10435606;27;96623;-77